createdAt,value
2022-10-30T00:01:28.575Z,11.17
2022-10-30T00:03:55.403Z,11.19
2022-10-30T00:06:22.007Z,11.21
2022-10-30T00:08:48.918Z,11.18
2022-10-30T00:11:15.588Z,11.17
2022-10-30T00:13:44.010Z,11.18
2022-10-30T00:16:12.040Z,11.19
2022-10-30T00:18:39.715Z,11.17
2022-10-30T00:21:07.804Z,11.17
2022-10-30T00:23:34.390Z,11.09
2022-10-30T00:26:04.901Z,11.10
2022-10-30T00:28:31.572Z,11.10
2022-10-30T00:31:00.041Z,11.06
2022-10-30T00:33:28.142Z,11.06
2022-10-30T00:35:54.911Z,11.06
2022-10-30T00:38:21.600Z,11.14
2022-10-30T00:40:48.889Z,11.08
2022-10-30T00:43:33.871Z,11.03
2022-10-30T00:46:06.308Z,10.97
2022-10-30T00:48:34.963Z,10.99
2022-10-30T00:51:04.954Z,10.92
2022-10-30T00:53:31.914Z,10.89
2022-10-30T00:56:02.857Z,10.86
2022-10-30T00:58:34.261Z,10.85
2022-10-30T01:01:06.706Z,10.79
2022-10-30T01:03:36.213Z,10.75
2022-10-30T01:06:06.996Z,10.72
2022-10-30T01:08:34.133Z,10.66
2022-10-30T01:11:02.894Z,10.69
2022-10-30T01:13:30.543Z,10.72
2022-10-30T01:16:17.730Z,10.57
2022-10-30T01:18:52.918Z,10.55
2022-10-30T01:21:33.995Z,10.51
2022-10-30T01:24:17.248Z,10.53
2022-10-30T01:26:52.516Z,10.54
2022-10-30T01:29:33.000Z,10.55
2022-10-30T01:32:12.727Z,10.60
2022-10-30T01:34:45.722Z,10.62
2022-10-30T01:37:20.515Z,10.62
2022-10-30T01:39:47.588Z,10.68
2022-10-30T01:42:52.721Z,10.68
2022-10-30T01:45:31.959Z,10.69
2022-10-30T01:48:12.514Z,10.67
2022-10-30T01:50:49.898Z,10.70
2022-10-30T01:53:31.982Z,10.71
2022-10-30T01:56:06.137Z,10.73
2022-10-30T01:58:40.873Z,10.81
2022-10-30T02:01:08.396Z,10.88
2022-10-30T02:03:35.109Z,10.89
2022-10-30T02:06:03.886Z,10.91
2022-10-30T02:08:30.524Z,10.91
2022-10-30T02:10:58.879Z,10.85
2022-10-30T02:13:25.547Z,10.92
2022-10-30T02:15:52.189Z,10.99
2022-10-30T02:18:19.024Z,10.97
2022-10-30T02:20:47.064Z,10.85
2022-10-30T02:23:13.979Z,10.85
2022-10-30T02:25:40.687Z,10.77
2022-10-30T02:28:07.582Z,10.73
2022-10-30T02:30:34.248Z,10.77
2022-10-30T02:33:01.449Z,10.72
2022-10-30T02:35:29.471Z,10.70
2022-10-30T02:37:58.206Z,10.67
2022-10-30T02:40:25.000Z,10.69
2022-10-30T02:42:52.848Z,10.65
2022-10-30T02:45:19.705Z,10.61
2022-10-30T02:47:46.463Z,10.65
2022-10-30T02:50:13.472Z,10.59
2022-10-30T02:52:40.138Z,10.61
2022-10-30T02:55:08.914Z,10.58
2022-10-30T02:57:35.700Z,10.60
2022-10-30T03:00:02.275Z,10.58
2022-10-30T03:02:29.063Z,10.57
2022-10-30T03:04:55.688Z,10.58
2022-10-30T03:07:22.769Z,10.63
2022-10-30T03:09:49.341Z,10.60
2022-10-30T03:12:17.329Z,10.63
2022-10-30T03:14:43.992Z,10.57
2022-10-30T03:17:10.755Z,10.57
2022-10-30T03:19:37.706Z,10.55
2022-10-30T03:22:04.297Z,10.55
2022-10-30T03:24:31.025Z,10.58
2022-10-30T03:26:57.603Z,10.58
2022-10-30T03:29:25.565Z,10.64
2022-10-30T03:31:52.148Z,10.65
2022-10-30T03:34:18.773Z,10.67
2022-10-30T03:36:45.339Z,10.62
2022-10-30T03:39:12.347Z,10.55
2022-10-30T03:41:38.906Z,10.49
2022-10-30T03:44:05.618Z,10.47
2022-10-30T03:46:33.574Z,10.50
2022-10-30T03:49:00.576Z,10.52
2022-10-30T03:51:27.162Z,10.52
2022-10-30T03:53:54.003Z,10.46
2022-10-30T03:56:20.686Z,10.42
2022-10-30T03:58:47.275Z,10.45
2022-10-30T04:01:14.168Z,10.54
2022-10-30T04:03:42.554Z,10.53
2022-10-30T04:06:09.343Z,10.60
2022-10-30T04:08:36.093Z,10.61
2022-10-30T04:11:02.731Z,10.52
2022-10-30T04:13:29.706Z,10.54
2022-10-30T04:15:58.209Z,10.49
2022-10-30T04:18:25.440Z,10.53
2022-10-30T04:20:53.987Z,10.43
2022-10-30T04:23:21.786Z,10.44
2022-10-30T04:25:48.725Z,10.27
2022-10-30T04:28:15.478Z,10.13
2022-10-30T04:30:42.282Z,10.06
2022-10-30T04:33:11.654Z,10.06
2022-10-30T04:35:38.721Z,10.04
2022-10-30T04:38:08.537Z,9.97
2022-10-30T04:40:38.345Z,9.92
2022-10-30T04:43:05.696Z,9.87
2022-10-30T04:45:32.505Z,9.89
2022-10-30T04:48:03.301Z,9.87
2022-10-30T04:50:30.822Z,9.88
2022-10-30T04:53:01.389Z,9.92
2022-10-30T04:55:29.993Z,9.85
2022-10-30T04:57:58.043Z,9.83
2022-10-30T05:00:25.844Z,9.90
2022-10-30T05:02:52.587Z,9.82
2022-10-30T05:05:20.282Z,9.86
2022-10-30T05:07:46.859Z,9.89
2022-10-30T05:10:14.825Z,9.80
2022-10-30T05:12:43.645Z,9.71
2022-10-30T05:15:11.461Z,9.71
2022-10-30T05:17:38.109Z,9.64
2022-10-30T05:20:06.289Z,9.55
2022-10-30T05:22:33.006Z,9.53
2022-10-30T05:24:59.589Z,9.50
2022-10-30T05:27:26.342Z,9.48
2022-10-30T05:29:54.332Z,9.52
2022-10-30T05:32:20.887Z,9.45
2022-10-30T05:34:47.463Z,9.39
2022-10-30T05:37:14.058Z,9.36
2022-10-30T05:39:40.987Z,9.32
2022-10-30T05:42:11.224Z,9.31
2022-10-30T05:44:59.741Z,9.37
2022-10-30T05:47:28.458Z,9.38
2022-10-30T05:49:55.494Z,9.36
2022-10-30T05:52:22.161Z,9.34
2022-10-30T05:54:48.833Z,9.39
2022-10-30T05:57:15.483Z,9.43
2022-10-30T05:59:42.185Z,9.27
2022-10-30T06:02:09.028Z,9.29
2022-10-30T06:04:37.307Z,9.32
2022-10-30T06:07:04.052Z,9.29
2022-10-30T06:09:30.975Z,9.24
2022-10-30T06:11:58.171Z,9.27
2022-10-30T06:14:25.020Z,9.31
2022-10-30T06:16:51.608Z,9.37
2022-10-30T06:19:19.039Z,9.35
2022-10-30T06:21:47.224Z,9.34
2022-10-30T06:24:14.640Z,9.33
2022-10-30T06:26:41.686Z,9.38
2022-10-30T06:29:08.433Z,9.36
2022-10-30T06:31:35.052Z,9.38
2022-10-30T06:34:02.079Z,9.43
2022-10-30T06:36:28.899Z,9.49
2022-10-30T06:38:56.962Z,9.59
2022-10-30T06:41:27.537Z,9.73
2022-10-30T06:43:55.745Z,9.78
2022-10-30T06:46:24.532Z,9.95
2022-10-30T06:48:54.035Z,10.00
2022-10-30T06:51:21.011Z,9.98
2022-10-30T06:53:47.912Z,9.99
2022-10-30T06:56:16.270Z,10.05
2022-10-30T06:58:42.883Z,10.13
2022-10-30T07:01:09.522Z,10.27
2022-10-30T07:03:36.588Z,10.36
2022-10-30T07:06:03.210Z,10.38
2022-10-30T07:08:29.822Z,10.43
2022-10-30T07:10:57.187Z,10.45
2022-10-30T07:13:25.917Z,10.50
2022-10-30T07:15:52.536Z,10.51
2022-10-30T07:18:19.288Z,10.57
2022-10-30T07:20:45.874Z,10.62
2022-10-30T07:23:12.704Z,10.68
2022-10-30T07:25:39.354Z,10.74
2022-10-30T07:28:05.964Z,10.80
2022-10-30T07:30:34.258Z,10.85
2022-10-30T07:33:02.797Z,10.89
2022-10-30T07:35:30.382Z,11.05
2022-10-30T07:38:02.034Z,11.10
2022-10-30T07:40:28.767Z,11.14
2022-10-30T07:42:59.201Z,11.17
2022-10-30T07:45:26.770Z,11.26
2022-10-30T07:47:55.687Z,11.32
2022-10-30T07:50:23.275Z,11.40
2022-10-30T07:52:50.155Z,11.55
2022-10-30T07:55:17.220Z,11.61
2022-10-30T07:57:43.785Z,11.74
2022-10-30T08:00:12.768Z,11.85
2022-10-30T08:02:39.696Z,11.96
2022-10-30T08:05:08.761Z,12.08
2022-10-30T08:07:36.861Z,12.19
2022-10-30T08:10:04.202Z,12.26
2022-10-30T08:12:33.060Z,12.36
2022-10-30T08:14:59.666Z,12.46
2022-10-30T08:17:26.295Z,12.52
2022-10-30T08:19:53.007Z,12.60
2022-10-30T08:22:20.963Z,12.68
2022-10-30T08:24:47.786Z,12.76
2022-10-30T08:27:14.341Z,12.81
2022-10-30T08:29:41.496Z,12.88
2022-10-30T08:32:08.087Z,12.93
2022-10-30T08:34:34.969Z,13.01
2022-10-30T08:37:01.572Z,13.07
2022-10-30T08:39:29.855Z,13.16
2022-10-30T08:41:57.878Z,13.25
2022-10-30T08:44:24.462Z,13.33
2022-10-30T08:46:51.104Z,13.42
2022-10-30T08:49:17.754Z,13.50
2022-10-30T08:51:44.314Z,13.55
2022-10-30T08:54:10.961Z,13.63
2022-10-30T08:56:38.937Z,13.71
2022-10-30T08:59:05.569Z,13.79
2022-10-30T09:01:32.327Z,13.85
2022-10-30T09:03:59.036Z,13.85
2022-10-30T09:06:25.634Z,13.94
2022-10-30T09:08:52.216Z,14.04
2022-10-30T09:11:19.082Z,14.07
2022-10-30T09:13:47.030Z,14.29
2022-10-30T09:16:13.648Z,14.45
2022-10-30T09:18:41.394Z,14.52
2022-10-30T09:21:08.055Z,14.61
2022-10-30T09:23:34.638Z,14.64
2022-10-30T09:26:01.570Z,14.70
2022-10-30T09:28:28.139Z,14.76
2022-10-30T09:30:56.550Z,14.91
2022-10-30T09:33:23.429Z,14.96
2022-10-30T09:35:50.445Z,14.97
2022-10-30T09:38:17.049Z,15.10
2022-10-30T09:41:01.211Z,15.04
2022-10-30T09:43:39.135Z,15.00
2022-10-30T09:46:18.881Z,15.06
2022-10-30T09:48:59.658Z,15.10
2022-10-30T09:51:53.221Z,15.10
2022-10-30T09:54:27.691Z,15.16
2022-10-30T09:57:02.408Z,15.36
2022-10-30T09:59:43.362Z,15.42
2022-10-30T10:02:26.016Z,15.49
2022-10-30T10:04:58.206Z,15.60
2022-10-30T10:07:29.874Z,15.69
2022-10-30T10:10:01.289Z,15.87
2022-10-30T10:12:33.555Z,15.88
2022-10-30T10:15:04.422Z,16.02
2022-10-30T10:17:36.622Z,16.07
2022-10-30T10:20:04.883Z,16.09
2022-10-30T10:22:38.545Z,16.14
2022-10-30T10:25:09.965Z,16.22
2022-10-30T10:27:50.500Z,16.22
2022-10-30T10:30:19.869Z,16.30
2022-10-30T10:33:10.471Z,16.36
2022-10-30T10:36:03.570Z,16.35
2022-10-30T10:38:44.634Z,16.44
2022-10-30T10:41:19.038Z,16.54
2022-10-30T10:44:15.358Z,16.61
2022-10-30T10:46:53.968Z,16.74
2022-10-30T10:49:39.010Z,17.13
2022-10-30T10:52:10.560Z,17.14
2022-10-30T10:54:43.580Z,17.12
2022-10-30T10:57:17.711Z,17.13
2022-10-30T10:59:50.383Z,17.06
2022-10-30T11:02:34.086Z,17.21
2022-10-30T11:05:07.929Z,17.41
2022-10-30T11:07:45.532Z,17.41
2022-10-30T11:10:14.235Z,17.47
2022-10-30T11:12:41.311Z,17.61
2022-10-30T11:15:31.299Z,17.64
2022-10-30T11:18:01.499Z,17.64
2022-10-30T11:20:40.018Z,17.60
2022-10-30T11:23:34.752Z,17.65
2022-10-30T11:26:02.336Z,17.74
2022-10-30T11:28:40.901Z,17.72
2022-10-30T11:31:22.973Z,17.76
2022-10-30T11:33:50.486Z,17.72
2022-10-30T11:36:22.011Z,17.82
2022-10-30T11:38:49.034Z,17.94
2022-10-30T11:41:16.955Z,17.95
2022-10-30T11:43:44.277Z,17.98
2022-10-30T11:46:16.279Z,17.94
2022-10-30T11:48:44.815Z,17.88
2022-10-30T11:51:13.634Z,17.85
2022-10-30T11:53:47.890Z,17.90
2022-10-30T11:56:17.865Z,18.01
2022-10-30T11:58:48.718Z,17.97
2022-10-30T12:01:22.184Z,18.07
2022-10-30T12:03:49.026Z,18.07
2022-10-30T12:06:20.842Z,17.96
2022-10-30T12:09:12.979Z,17.96
2022-10-30T12:11:41.637Z,18.20
2022-10-30T12:14:17.089Z,18.02
2022-10-30T12:16:46.561Z,18.06
2022-10-30T12:19:14.914Z,18.11
2022-10-30T12:21:48.525Z,18.16
2022-10-30T12:24:21.398Z,18.17
2022-10-30T12:26:50.929Z,18.22
2022-10-30T12:29:19.764Z,18.30
2022-10-30T12:31:53.646Z,18.42
2022-10-30T12:34:33.857Z,18.48
2022-10-30T12:37:08.216Z,18.51
2022-10-30T12:39:49.112Z,18.59
2022-10-30T12:42:17.756Z,18.69
2022-10-30T12:44:48.341Z,18.75
2022-10-30T12:47:23.547Z,18.96
2022-10-30T12:49:52.267Z,18.91
2022-10-30T12:52:24.606Z,18.82
2022-10-30T12:54:58.905Z,18.79
2022-10-30T12:57:30.869Z,18.72
2022-10-30T13:00:02.796Z,18.68
2022-10-30T13:02:40.729Z,18.67
2022-10-30T13:05:28.449Z,18.74
2022-10-30T13:08:09.815Z,18.76
2022-10-30T13:10:44.330Z,18.78
2022-10-30T13:13:16.603Z,18.78
2022-10-30T13:15:48.293Z,18.73
2022-10-30T13:18:15.828Z,18.71
2022-10-30T13:20:48.439Z,18.70
2022-10-30T13:23:23.671Z,18.70
2022-10-30T13:26:02.846Z,18.70
2022-10-30T13:28:36.143Z,18.62
2022-10-30T13:31:14.439Z,18.61
2022-10-30T13:33:47.513Z,18.56
2022-10-30T13:36:21.266Z,18.54
2022-10-30T13:38:58.537Z,18.48
2022-10-30T13:41:34.220Z,18.42
2022-10-30T13:44:09.855Z,18.39
2022-10-30T13:46:53.937Z,18.33
2022-10-30T13:49:37.762Z,18.29
2022-10-30T13:52:12.678Z,18.19
2022-10-30T13:54:44.875Z,18.14
2022-10-30T13:57:19.569Z,18.06
2022-10-30T14:00:00.045Z,18.00
2022-10-30T14:02:42.204Z,17.98
2022-10-30T14:05:23.057Z,18.00
2022-10-30T14:07:55.365Z,17.92
2022-10-30T14:10:39.599Z,17.85
2022-10-30T14:13:21.107Z,17.78
2022-10-30T14:15:47.819Z,17.79
2022-10-30T14:18:25.058Z,17.72
2022-10-30T14:20:52.705Z,17.59
2022-10-30T14:23:25.043Z,17.52
2022-10-30T14:26:20.492Z,17.34
2022-10-30T14:28:50.998Z,17.31
2022-10-30T14:31:19.221Z,17.24
2022-10-30T14:33:48.362Z,17.21
2022-10-30T14:36:25.680Z,17.12
2022-10-30T14:38:54.422Z,17.10
2022-10-30T14:41:48.457Z,16.98
2022-10-30T14:44:28.398Z,16.91
2022-10-30T14:47:09.801Z,16.80
2022-10-30T14:49:48.310Z,16.72
2022-10-30T14:52:22.107Z,16.54
2022-10-30T14:54:58.855Z,16.52
2022-10-30T14:57:44.927Z,16.46
2022-10-30T15:00:38.564Z,16.37
2022-10-30T15:03:10.359Z,16.17
2022-10-30T15:05:43.858Z,16.08
2022-10-30T15:08:38.332Z,16.06
2022-10-30T15:11:19.466Z,15.86
2022-10-30T15:13:48.867Z,15.69
2022-10-30T15:16:19.763Z,15.70
2022-10-30T15:18:46.871Z,15.52
2022-10-30T15:21:20.690Z,15.47
2022-10-30T15:23:47.298Z,15.24
2022-10-30T15:26:20.326Z,15.29
2022-10-30T15:28:50.718Z,15.15
2022-10-30T15:31:24.129Z,15.05
2022-10-30T15:33:51.281Z,14.96
2022-10-30T15:36:18.943Z,14.88
2022-10-30T15:39:02.509Z,14.68
2022-10-30T15:41:29.461Z,14.55
2022-10-30T15:43:56.294Z,14.37
2022-10-30T15:46:24.783Z,14.29
2022-10-30T15:48:51.707Z,14.08
2022-10-30T15:51:22.313Z,14.02
2022-10-30T15:53:53.027Z,14.05
2022-10-30T15:56:26.794Z,14.02
2022-10-30T15:58:57.353Z,13.86
2022-10-30T16:01:27.402Z,13.89
2022-10-30T16:03:54.600Z,13.70
2022-10-30T16:06:24.478Z,13.56
2022-10-30T16:08:51.168Z,13.46
2022-10-30T16:11:18.429Z,13.30
2022-10-30T16:13:44.999Z,13.28
2022-10-30T16:16:20.472Z,13.32
2022-10-30T16:18:49.206Z,13.30
2022-10-30T16:21:18.205Z,13.22
2022-10-30T16:23:49.426Z,13.28
2022-10-30T16:26:25.898Z,13.22
2022-10-30T16:28:52.894Z,13.04
2022-10-30T16:31:20.408Z,12.98
2022-10-30T16:33:49.189Z,12.88
2022-10-30T16:36:18.216Z,12.92
2022-10-30T16:38:47.624Z,12.66
2022-10-30T16:41:14.453Z,12.45
2022-10-30T16:43:42.667Z,12.41
2022-10-30T16:46:37.987Z,12.27
2022-10-30T16:49:12.162Z,12.29
2022-10-30T16:51:39.838Z,12.27
2022-10-30T16:54:06.666Z,12.30
2022-10-30T16:56:33.426Z,12.22
2022-10-30T16:59:08.049Z,12.26
2022-10-30T17:01:35.422Z,12.14
2022-10-30T17:04:02.764Z,12.19
2022-10-30T17:06:39.604Z,12.17
2022-10-30T17:09:08.343Z,12.16
2022-10-30T17:11:37.420Z,12.14
2022-10-30T17:14:15.177Z,12.05
2022-10-30T17:16:41.759Z,12.01
2022-10-30T17:19:38.050Z,11.83
2022-10-30T17:22:10.158Z,11.76
2022-10-30T17:24:38.374Z,11.82
2022-10-30T17:27:07.628Z,11.84
2022-10-30T17:29:46.465Z,11.82
2022-10-30T17:32:19.404Z,11.83
2022-10-30T17:34:46.599Z,11.83
2022-10-30T17:37:14.582Z,11.83
2022-10-30T17:39:41.259Z,11.69
2022-10-30T17:42:10.139Z,11.62
2022-10-30T17:44:37.044Z,11.63
2022-10-30T17:47:14.072Z,11.63
2022-10-30T17:49:40.843Z,11.67
2022-10-30T17:52:10.460Z,11.64
2022-10-30T17:54:38.408Z,11.66
2022-10-30T17:57:05.356Z,11.60
2022-10-30T17:59:31.915Z,11.37
2022-10-30T18:01:58.504Z,11.37
2022-10-30T18:04:25.420Z,11.34
2022-10-30T18:06:51.980Z,11.36
2022-10-30T18:09:18.551Z,11.35
2022-10-30T18:11:46.475Z,11.39
2022-10-30T18:14:13.041Z,11.35
2022-10-30T18:16:39.592Z,11.24
2022-10-30T18:19:10.631Z,11.30
2022-10-30T18:21:37.828Z,11.36
2022-10-30T18:24:10.971Z,11.35
2022-10-30T18:26:40.407Z,11.31
2022-10-30T18:29:08.961Z,11.31
2022-10-30T18:31:36.190Z,11.31
2022-10-30T18:34:02.917Z,11.31
2022-10-30T18:36:29.477Z,11.25
2022-10-30T18:38:56.261Z,11.28
2022-10-30T18:41:30.913Z,11.30
2022-10-30T18:43:57.547Z,11.24
2022-10-30T18:46:25.644Z,11.07
2022-10-30T18:48:52.213Z,11.16
2022-10-30T18:51:21.890Z,11.22
2022-10-30T18:53:48.563Z,11.12
2022-10-30T18:56:15.368Z,11.14
2022-10-30T18:58:41.969Z,11.10
2022-10-30T19:01:12.926Z,11.02
2022-10-30T19:03:41.401Z,10.99
2022-10-30T19:06:11.187Z,10.98
2022-10-30T19:08:38.113Z,10.93
2022-10-30T19:11:05.411Z,10.87
2022-10-30T19:13:32.508Z,10.85
2022-10-30T19:16:00.635Z,10.82
2022-10-30T19:18:28.132Z,10.75
2022-10-30T19:21:05.064Z,10.73
2022-10-30T19:23:33.819Z,10.72
2022-10-30T19:26:00.737Z,10.69
2022-10-30T19:28:27.438Z,10.60
2022-10-30T19:30:54.020Z,10.66
2022-10-30T19:33:22.006Z,10.56
2022-10-30T19:35:53.424Z,10.54
2022-10-30T19:38:21.674Z,10.63
2022-10-30T19:40:48.485Z,10.66
2022-10-30T19:43:15.110Z,10.44
2022-10-30T19:45:41.681Z,10.38
2022-10-30T19:48:13.236Z,10.40
2022-10-30T19:50:41.295Z,10.37
2022-10-30T19:53:08.491Z,10.42
2022-10-30T19:55:38.591Z,10.40
2022-10-30T19:58:06.614Z,10.43
2022-10-30T20:00:34.750Z,10.40
2022-10-30T20:03:02.566Z,10.40
2022-10-30T20:05:36.558Z,10.42
2022-10-30T20:08:05.722Z,10.35
2022-10-30T20:10:35.201Z,10.31
2022-10-30T20:13:03.467Z,10.25
2022-10-30T20:15:30.167Z,10.23
2022-10-30T20:17:58.006Z,10.20
2022-10-30T20:20:26.827Z,10.15
2022-10-30T20:22:53.510Z,10.13
2022-10-30T20:25:20.858Z,10.17
2022-10-30T20:27:48.547Z,10.10
2022-10-30T20:30:19.145Z,10.11
2022-10-30T20:32:46.155Z,10.09
2022-10-30T20:35:13.073Z,10.04
2022-10-30T20:37:40.460Z,10.01
2022-10-30T20:40:12.683Z,10.08
2022-10-30T20:42:39.607Z,10.04
2022-10-30T20:45:07.214Z,10.02
2022-10-30T20:47:35.139Z,9.98
2022-10-30T20:50:01.709Z,9.97
2022-10-30T20:52:28.307Z,9.95
2022-10-30T20:54:54.918Z,9.92
2022-10-30T20:57:21.479Z,9.89
2022-10-30T20:59:48.073Z,9.83
2022-10-30T21:02:14.771Z,9.86
2022-10-30T21:04:42.911Z,9.84
2022-10-30T21:07:09.470Z,9.79
2022-10-30T21:09:36.018Z,9.79
2022-10-30T21:12:02.578Z,9.77
2022-10-30T21:14:29.133Z,9.79
2022-10-30T21:16:55.704Z,9.79
2022-10-30T21:19:22.325Z,9.78
2022-10-30T21:21:50.308Z,9.73
2022-10-30T21:24:16.863Z,9.71
2022-10-30T21:26:43.578Z,9.72
2022-10-30T21:29:10.150Z,9.74
2022-10-30T21:31:36.693Z,9.83
2022-10-30T21:34:03.356Z,9.75
2022-10-30T21:36:29.917Z,9.74
2022-10-30T21:38:58.830Z,9.67
2022-10-30T21:41:27.348Z,9.67
2022-10-30T21:43:55.389Z,9.62
2022-10-30T21:46:23.482Z,9.65
2022-10-30T21:48:50.634Z,9.58
2022-10-30T21:51:20.692Z,9.55
2022-10-30T21:53:47.880Z,9.51
2022-10-30T21:56:18.457Z,9.45
2022-10-30T21:58:45.173Z,9.43
2022-10-30T22:01:17.482Z,9.44
2022-10-30T22:03:44.101Z,9.42
2022-10-30T22:06:12.465Z,9.50
2022-10-30T22:08:39.860Z,9.45
2022-10-30T22:11:08.215Z,9.38
2022-10-30T22:13:36.974Z,9.34
2022-10-30T22:16:05.534Z,9.32
2022-10-30T22:18:32.766Z,9.32
2022-10-30T22:21:00.278Z,9.33
2022-10-30T22:23:27.230Z,9.32
2022-10-30T22:25:54.798Z,9.29
2022-10-30T22:28:21.418Z,9.28
2022-10-30T22:30:49.602Z,9.24
2022-10-30T22:33:16.246Z,9.26
2022-10-30T22:35:42.905Z,9.21
2022-10-30T22:38:09.550Z,9.14
2022-10-30T22:40:36.121Z,9.10
2022-10-30T22:43:02.783Z,9.08
2022-10-30T22:45:29.495Z,9.09
2022-10-30T22:47:57.759Z,9.14
2022-10-30T22:50:24.581Z,9.09
2022-10-30T22:52:51.150Z,9.06
2022-10-30T22:55:17.761Z,8.99
2022-10-30T22:57:44.363Z,9.00
2022-10-30T23:00:16.714Z,8.97
2022-10-30T23:02:45.905Z,8.93
2022-10-30T23:05:13.926Z,8.88
2022-10-30T23:07:40.490Z,8.88
2022-10-30T23:10:08.374Z,8.92
2022-10-30T23:12:34.963Z,8.90
2022-10-30T23:15:01.572Z,8.88
2022-10-30T23:17:28.167Z,8.86
2022-10-30T23:19:54.756Z,8.84
2022-10-30T23:22:22.732Z,8.76
2022-10-30T23:24:49.309Z,8.70
2022-10-30T23:27:15.875Z,8.73
2022-10-30T23:29:42.428Z,8.71
2022-10-30T23:32:08.974Z,8.68
2022-10-30T23:34:35.509Z,8.67
2022-10-30T23:37:02.124Z,8.65
2022-10-30T23:39:30.062Z,8.62
2022-10-30T23:41:56.649Z,8.57
2022-10-30T23:44:23.202Z,8.56
2022-10-30T23:46:49.789Z,8.52
2022-10-30T23:49:16.371Z,8.53
2022-10-30T23:51:42.972Z,8.49
2022-10-30T23:54:09.727Z,8.48
2022-10-30T23:56:37.674Z,8.48
2022-10-30T23:59:04.261Z,8.52
